Time;durP1;ratioP1;P1;durP2;ratioP2;P2;SDS_P1;SDS_P2;PMS_P1;PMS_P2;Temp;Humidity;BMP_temperature;BMP_pressure;BME280_temperature;BME280_humidity;BME280_pressure;Samples;Min_cycle;Max_cycle;Signal;HPM_P1;HPM_P2
2021/01/29 00:00:59;;;;;;;;;;;6.30;99.90;;;4.65;100.00;99709.13;5015476;28;19971;-40
2021/01/29 00:03:29;;;;;;;;;;;6.30;99.90;;;4.69;100.00;99710.41;5031419;28;20012;-40
2021/01/29 00:05:58;;;;;;;;;;;6.40;99.90;;;4.67;100.00;99703.53;5031490;28;20011;-40
2021/01/29 00:08:25;;;;;;;;;;;6.40;99.90;;;4.69;100.00;99699.59;5031474;28;20383;-40
2021/01/29 00:10:53;;;;;;;;;;;6.40;99.90;;;4.74;100.00;99693.59;4998644;28;19921;-40
2021/01/29 00:13:22;;;;;;;;;;;6.40;99.90;;;4.77;100.00;99692.34;5015028;28;19921;-40
2021/01/29 00:15:50;;;;;;;;;;;6.50;99.90;;;4.81;100.00;99680.94;5031270;28;19944;-40
2021/01/29 00:18:17;;;;;;;;;;;6.50;99.90;;;4.84;100.00;99675.13;5013776;28;19928;-40
2021/01/29 00:20:44;;;;;;;;;;;6.50;99.90;;;4.87;100.00;99671.19;5031344;28;19928;-40
2021/01/29 00:23:13;;;;;;;;;;;6.50;99.90;;;4.87;100.00;99668.47;5014656;28;19971;-40
2021/01/29 00:25:46;;;;;;;;;;;6.50;99.90;;;4.86;100.00;99667.63;5031275;28;20366;-40
2021/01/29 00:28:14;;;;;;;;;;;6.60;99.90;;;4.89;100.00;99664.50;5014287;28;19921;-40
2021/01/29 00:30:42;;;;;;;;;;;6.50;99.90;;;4.91;100.00;99664.31;5014599;28;20410;-40
2021/01/29 00:33:12;;;;;;;;;;;6.60;99.90;;;4.89;100.00;99652.88;5014645;28;20453;-40
2021/01/29 00:35:40;;;;;;;;;;;6.60;99.90;;;4.92;100.00;99643.56;4998455;28;19921;-40
2021/01/29 00:38:08;;;;;;;;;;;6.60;99.90;;;4.94;100.00;99634.19;5014775;28;19929;-40
2021/01/29 00:40:36;;;;;;;;;;;6.60;99.90;;;4.95;100.00;99619.63;5014543;28;20391;-40
2021/01/29 00:43:05;;;;;;;;;;;6.60;99.90;;;4.97;100.00;99609.44;4998264;28;19921;-40
2021/01/29 00:45:35;;;;;;;;;;;6.60;99.90;;;4.99;100.00;99596.56;5014372;28;19925;-40
2021/01/29 00:48:05;;;;;;;;;;;6.70;99.90;;;4.99;100.00;99593.03;5030946;28;19924;-40
2021/01/29 00:50:33;;;;;;;;;;;6.60;99.90;;;4.96;100.00;99596.97;5032135;28;19925;-40
2021/01/29 00:53:00;;;;;;;;;;;6.60;99.90;;;4.95;100.00;99595.31;4997946;28;20315;-40
2021/01/29 00:55:29;;;;;;;;;;;6.60;99.90;;;4.99;100.00;99574.09;5014648;28;19982;-40
2021/01/29 00:58:02;;;;;;;;;;;6.70;99.90;;;5.03;100.00;99578.06;5015250;28;19975;-40
2021/01/29 01:00:39;;;;;;;;;;;6.70;99.90;;;5.02;100.00;99577.22;5030895;28;19927;-40
2021/01/29 01:03:12;;;;;;;;;;;6.70;99.90;;;5.03;100.00;99561.84;5030929;28;20447;-40
2021/01/29 01:05:42;;;;;;;;;;;6.70;99.90;;;5.04;100.00;99567.06;5014261;28;19921;-40
2021/01/29 01:08:13;;;;;;;;;;;6.70;99.90;;;5.04;100.00;99553.53;5030864;28;19921;-40
2021/01/29 01:10:50;;;;;;;;;;;6.70;99.90;;;5.07;100.00;99556.84;5015770;28;19921;-40
2021/01/29 01:13:37;;;;;;;;;;;6.70;99.90;;;5.10;100.00;99548.34;5017115;28;20399;-40
2021/01/29 01:16:24;;;;;;;;;;;6.80;99.90;;;5.10;100.00;99551.03;5017293;28;19927;-40
2021/01/29 01:18:53;;;;;;;;;;;6.80;99.90;;;5.15;100.00;99543.13;4998355;28;20011;-40
2021/01/29 01:21:39;;;;;;;;;;;6.80;99.90;;;5.20;100.00;99543.31;5030702;28;19921;-40
2021/01/29 01:24:15;;;;;;;;;;;6.80;99.90;;;5.25;100.00;99531.88;4985779;28;19925;-40
2021/01/29 01:26:43;;;;;;;;;;;6.90;99.90;;;5.29;100.00;99527.72;5014643;28;19943;-40
2021/01/29 01:29:20;;;;;;;;;;;6.90;99.90;;;5.31;100.00;99523.78;5017414;28;20410;-40
2021/01/29 01:31:47;;;;;;;;;;;7.00;99.90;;;5.33;100.00;99516.28;5018111;28;19956;-40
2021/01/29 01:34:25;;;;;;;;;;;7.00;99.90;;;5.36;100.00;99509.59;5019513;28;20051;-40
2021/01/29 01:37:04;;;;;;;;;;;7.00;99.90;;;5.40;100.00;99508.13;5019480;28;19956;-40
2021/01/29 01:39:51;;;;;;;;;;;7.00;99.90;;;5.41;100.00;99488.16;5007223;28;19960;-40
2021/01/29 01:42:18;;;;;;;;;;;7.10;99.90;;;5.45;100.00;99475.91;5001889;28;19921;-40
2021/01/29 01:44:46;;;;;;;;;;;7.10;99.90;;;5.48;100.00;99469.22;5017382;28;19932;-40
2021/01/29 01:47:27;;;;;;;;;;;7.10;99.90;;;5.48;100.00;99466.50;5019277;28;19921;-40
2021/01/29 01:50:17;;;;;;;;;;;7.10;99.90;;;5.55;100.00;99458.38;5035435;28;20398;-40
2021/01/29 01:52:44;;;;;;;;;;;7.20;99.90;;;5.54;100.00;99448.59;5001207;28;20338;-40
2021/01/29 01:55:24;;;;;;;;;;;7.20;99.90;;;5.54;100.00;99437.78;5033897;28;19921;-40
2021/01/29 01:58:06;;;;;;;;;;;7.20;99.90;;;5.55;100.00;99434.03;5005061;28;19921;-40
2021/01/29 02:00:40;;;;;;;;;;;7.20;99.90;;;5.57;100.00;99424.66;5035170;28;19921;-40
2021/01/29 02:03:27;;;;;;;;;;;7.20;99.90;;;5.60;100.00;99409.88;5019114;28;19947;-40
2021/01/29 02:06:06;;;;;;;;;;;7.20;99.90;;;5.63;100.00;99405.91;5033836;28;19925;-40
2021/01/29 02:08:45;;;;;;;;;;;7.30;99.90;;;5.66;100.00;99400.06;5033907;28;19921;-40
2021/01/29 02:11:19;;;;;;;;;;;7.30;99.90;;;5.69;100.00;99394.22;5033602;28;20406;-40
2021/01/29 02:14:01;;;;;;;;;;;7.30;99.90;;;5.73;100.00;99380.06;5033583;28;19936;-40
2021/01/29 02:16:53;;;;;;;;;;;7.40;99.90;;;5.75;100.00;99382.53;5019028;28;19921;-40
2021/01/29 02:19:59;;;;;;;;;;;7.40;99.90;;;5.81;100.00;99368.13;5020100;28;19921;-40
2021/01/29 02:22:47;;;;;;;;;;;7.40;99.90;;;5.83;100.00;99354.38;5001109;28;19921;-40
2021/01/29 02:25:51;;;;;;;;;;;7.50;99.90;;;5.89;100.00;99343.53;5033641;28;19921;-40
2021/01/29 02:28:43;;;;;;;;;;;7.50;99.90;;;5.92;100.00;99344.13;5018265;28;19940;-40
2021/01/29 02:31:28;;;;;;;;;;;7.50;99.90;;;5.89;100.00;99318.31;5019388;28;19925;-40
2021/01/29 02:34:16;;;;;;;;;;;7.50;99.90;;;5.91;100.00;99321.63;5033217;28;20350;-40
2021/01/29 02:37:02;;;;;;;;;;;7.50;99.90;;;5.96;100.00;99312.88;5018090;28;19920;-40
2021/01/29 02:39:51;;;;;;;;;;;7.60;99.90;;;5.94;100.00;99302.25;5033396;28;19921;-40
2021/01/29 02:42:30;;;;;;;;;;;7.60;99.90;;;5.95;100.00;99295.78;5001905;28;19928;-40
2021/01/29 02:45:28;;;;;;;;;;;7.60;99.90;;;5.94;100.00;99290.59;5033067;28;19921;-40
2021/01/29 02:48:24;;;;;;;;;;;7.60;99.90;;;5.95;100.00;99273.31;5018407;28;19921;-40
2021/01/29 02:51:27;;;;;;;;;;;7.60;99.90;;;6.00;100.00;99266.19;5005338;28;19928;-40
2021/01/29 02:54:18;;;;;;;;;;;7.60;99.90;;;5.99;100.00;99259.13;5017822;28;19921;-40
2021/01/29 02:57:17;;;;;;;;;;;7.70;99.90;;;6.08;100.00;99256.97;5033185;28;19968;-40
2021/01/29 03:00:08;;;;;;;;;;;7.70;99.90;;;6.04;100.00;99244.94;5019114;28;19928;-40
2021/01/29 03:02:55;;;;;;;;;;;7.70;99.90;;;6.07;100.00;99233.66;5018006;28;19925;-40
2021/01/29 03:05:47;;;;;;;;;;;7.70;99.90;;;6.09;100.00;99225.31;5032607;28;19925;-40
2021/01/29 03:08:20;;;;;;;;;;;7.80;99.90;;;6.13;100.00;99231.94;5032731;28;20370;-40
2021/01/29 03:11:07;;;;;;;;;;;7.80;99.90;;;6.12;100.00;99211.34;5032572;28;20382;-40
2021/01/29 03:13:53;;;;;;;;;;;7.80;99.90;;;6.11;100.00;99191.56;5032646;28;19999;-40
2021/01/29 03:16:42;;;;;;;;;;;7.80;99.90;;;6.15;100.00;99184.66;5018589;28;19921;-40
2021/01/29 03:19:33;;;;;;;;;;;7.80;99.90;;;6.19;100.00;99177.72;5017728;28;20302;-40
2021/01/29 03:22:18;;;;;;;;;;;7.80;99.90;;;6.19;100.00;99177.72;5032329;28;20280;-40
2021/01/29 03:25:02;;;;;;;;;;;7.80;99.90;;;6.18;100.00;99170.66;5017880;28;19935;-40
2021/01/29 03:27:50;;;;;;;;;;;7.80;99.90;;;6.17;100.00;99166.28;5017772;28;19935;-40
2021/01/29 03:30:32;;;;;;;;;;;7.80;99.90;;;6.15;100.00;99162.13;5018599;28;20322;-40
2021/01/29 03:33:12;;;;;;;;;;;7.80;99.90;;;6.16;100.00;99153.81;5017534;28;20355;-40
2021/01/29 03:36:00;;;;;;;;;;;7.80;99.90;;;6.20;100.00;99143.34;5017115;28;19924;-40
2021/01/29 03:38:44;;;;;;;;;;;7.80;99.90;;;6.18;100.00;99142.72;5032273;28;20383;-40
2021/01/29 03:41:40;;;;;;;;;;;7.80;99.90;;;6.14;100.00;99130.69;5017088;28;20020;-40
2021/01/29 03:44:27;;;;;;;;;;;7.80;99.90;;;6.16;100.00;99123.19;5016786;28;20303;-40
2021/01/29 03:47:12;;;;;;;;;;;7.80;99.90;;;6.16;100.00;99105.06;5017173;28;19925;-40
2021/01/29 03:49:58;;;;;;;;;;;7.80;99.90;;;6.13;100.00;99099.25;5016894;28;19936;-40
2021/01/29 03:52:50;;;;;;;;;;;7.80;99.90;;;6.12;100.00;99101.16;5001843;28;19925;-40
2021/01/29 03:55:38;;;;;;;;;;;7.80;99.90;;;6.17;100.00;99081.50;5016829;28;19943;-40
2021/01/29 03:58:34;;;;;;;;;;;7.80;99.90;;;6.23;100.00;99079.78;5016992;28;19925;-40
2021/01/29 04:01:29;;;;;;;;;;;7.90;99.90;;;6.20;100.00;99078.34;5016772;28;19945;-40
2021/01/29 04:04:27;;;;;;;;;;;7.80;99.90;;;6.21;100.00;99062.94;5032548;28;20040;-40
2021/01/29 04:07:19;;;;;;;;;;;7.80;99.90;;;6.27;100.00;99053.88;5031943;28;19921;-40
2021/01/29 04:10:03;;;;;;;;;;;7.90;99.90;;;6.30;100.00;99037.19;5016581;28;19921;-40
2021/01/29 04:12:47;;;;;;;;;;;7.90;99.90;;;6.31;100.00;99036.13;5031574;28;19944;-40
2021/01/29 04:15:26;;;;;;;;;;;7.90;99.90;;;6.28;100.00;99034.72;5031503;28;20100;-40
2021/01/29 04:17:59;;;;;;;;;;;7.90;99.90;;;6.29;100.00;99030.13;5048008;28;19921;-40
2021/01/29 04:20:35;;;;;;;;;;;8.00;99.90;;;6.29;100.00;99024.69;5031172;28;19960;-40
2021/01/29 04:23:06;;;;;;;;;;;7.90;99.90;;;6.28;100.00;99021.19;5014994;28;19974;-40
2021/01/29 04:25:41;;;;;;;;;;;7.90;99.90;;;6.31;100.00;99007.16;5014846;28;19921;-40
2021/01/29 04:28:15;;;;;;;;;;;7.90;99.90;;;6.29;100.00;99003.88;5032611;28;19921;-40
2021/01/29 04:30:46;;;;;;;;;;;7.90;99.90;;;6.31;100.00;98995.50;5014879;28;19927;-40
2021/01/29 04:33:24;;;;;;;;;;;7.90;99.90;;;6.32;100.00;98986.31;5016059;28;19921;-41
2021/01/29 04:35:53;;;;;;;;;;;8.00;99.90;;;6.33;100.00;98993.38;5014762;28;20015;-40
2021/01/29 04:38:32;;;;;;;;;;;8.00;99.90;;;6.34;100.00;98986.91;5014852;28;19927;-40
2021/01/29 04:41:09;;;;;;;;;;;8.00;99.90;;;6.31;100.00;98984.66;5032114;28;19921;-40
2021/01/29 04:43:55;;;;;;;;;;;8.00;99.90;;;6.26;100.00;98984.53;5030911;28;19944;-40
2021/01/29 04:46:41;;;;;;;;;;;8.00;99.90;;;6.33;100.00;98975.25;5014657;28;19921;-40
2021/01/29 04:49:24;;;;;;;;;;;8.00;99.90;;;6.32;100.00;98972.78;5031157;28;19921;-40
2021/01/29 04:52:10;;;;;;;;;;;8.00;99.90;;;6.40;100.00;98960.78;5030575;28;19945;-40
2021/01/29 04:54:50;;;;;;;;;;;8.00;99.90;;;6.36;100.00;98963.13;5014384;28;19921;-40
2021/01/29 04:57:27;;;;;;;;;;;8.00;99.90;;;6.34;100.00;98948.97;4998280;28;20379;-40
2021/01/29 05:00:05;;;;;;;;;;;8.00;99.90;;;6.29;100.00;98949.69;5030918;28;19921;-40
2021/01/29 05:03:01;;;;;;;;;;;8.00;99.90;;;6.26;100.00;98952.03;5030972;28;19921;-40
2021/01/29 05:05:59;;;;;;;;;;;7.90;99.90;;;6.24;100.00;98940.59;5019683;28;20011;-40
2021/01/29 05:08:53;;;;;;;;;;;7.90;99.90;;;6.25;100.00;98951.22;5035334;28;19924;-40
2021/01/29 05:11:59;;;;;;;;;;;7.90;99.90;;;6.23;100.00;98944.38;5034938;28;20372;-40
2021/01/29 05:14:45;;;;;;;;;;;7.90;99.90;;;6.19;100.00;98939.41;5018206;28;19921;-40
2021/01/29 05:17:22;;;;;;;;;;;7.80;99.90;;;6.17;100.00;98933.41;5034917;28;20341;-40
2021/01/29 05:20:06;;;;;;;;;;;7.80;99.90;;;6.19;100.00;98927.75;5035903;28;20383;-40
2021/01/29 05:22:50;;;;;;;;;;;7.80;99.90;;;6.20;100.00;98918.56;5017988;28;19921;-40
2021/01/29 05:25:39;;;;;;;;;;;7.90;99.90;;;6.23;100.00;98917.28;5017969;28;19921;-40
2021/01/29 05:28:26;;;;;;;;;;;7.80;99.90;;;6.21;100.00;98920.22;5018220;28;19960;-40
2021/01/29 05:31:13;;;;;;;;;;;7.90;99.90;;;6.21;100.00;98903.16;5034345;28;19928;-40
2021/01/29 05:33:51;;;;;;;;;;;7.80;99.90;;;6.17;100.00;98897.38;5034657;28;19920;-40
2021/01/29 05:36:29;;;;;;;;;;;7.90;99.90;;;6.20;100.00;98896.91;5034335;28;20003;-40
2021/01/29 05:39:15;;;;;;;;;;;7.90;99.90;;;6.21;100.00;98886.91;5035638;28;20340;-40
2021/01/29 05:41:56;;;;;;;;;;;7.80;99.90;;;6.23;100.00;98890.22;5034479;28;19921;-40
2021/01/29 05:44:42;;;;;;;;;;;7.80;99.90;;;6.24;100.00;98883.72;5034225;28;20370;-40
2021/01/29 05:47:18;;;;;;;;;;;7.90;99.90;;;6.21;100.00;98884.19;5034204;28;19921;-40
2021/01/29 05:50:12;;;;;;;;;;;7.80;99.90;;;6.19;100.00;98887.97;5034137;28;20340;-40
2021/01/29 05:53:01;;;;;;;;;;;7.90;99.90;;;6.21;100.00;98886.91;5017242;28;19921;-40
2021/01/29 05:55:43;;;;;;;;;;;7.80;99.90;;;6.23;100.00;98896.44;5017836;28;20342;-40
2021/01/29 05:58:30;;;;;;;;;;;7.80;99.90;;;6.24;100.00;98899.97;5034331;28;20346;-40
2021/01/29 06:01:16;;;;;;;;;;;7.90;99.90;;;6.29;100.00;98890.13;5033970;28;20004;-40
2021/01/29 06:03:48;;;;;;;;;;;7.90;99.90;;;6.28;100.00;98898.47;5034917;28;19920;-40
2021/01/29 06:06:35;;;;;;;;;;;7.90;99.90;;;6.27;100.00;98900.34;5033786;28;20388;-40
2021/01/29 06:09:21;;;;;;;;;;;7.90;99.90;;;6.31;100.00;98898.00;5033870;28;20020;-40
2021/01/29 06:11:57;;;;;;;;;;;7.90;99.90;;;6.38;100.00;98906.88;5017382;28;20012;-40
2021/01/29 06:14:38;;;;;;;;;;;8.00;99.90;;;6.44;100.00;98897.81;5017041;28;20402;-40
2021/01/29 06:17:25;;;;;;;;;;;8.00;99.90;;;6.65;100.00;98892.88;5017283;28;20415;-40
2021/01/29 06:20:09;;;;;;;;;;;8.20;99.90;;;6.70;100.00;98890.28;5033737;28;20295;-40
2021/01/29 06:22:54;;;;;;;;;;;8.30;99.90;;;6.80;100.00;98897.00;5033484;28;19927;-40
2021/01/29 06:25:39;;;;;;;;;;;8.30;99.90;;;6.83;100.00;98897.38;5034841;28;20088;-40
2021/01/29 06:28:16;;;;;;;;;;;8.40;99.90;;;6.93;100.00;98898.66;5033876;28;20399;-40
2021/01/29 06:31:00;;;;;;;;;;;8.50;99.90;;;7.01;100.00;98904.56;5033122;28;19972;-40
2021/01/29 06:33:38;;;;;;;;;;;8.60;99.90;;;7.04;100.00;98904.09;5034493;28;19921;-40
2021/01/29 06:36:24;;;;;;;;;;;8.60;99.90;;;7.08;100.00;98911.75;5034701;28;19976;-40
2021/01/29 06:39:06;;;;;;;;;;;8.60;99.90;;;7.08;100.00;98914.47;5034645;28;20016;-40
2021/01/29 06:41:43;;;;;;;;;;;8.70;99.90;;;7.08;100.00;98911.75;5034621;28;20008;-40
2021/01/29 06:44:31;;;;;;;;;;;8.70;99.90;;;7.11;98.88;98919.41;5018299;28;19928;-40
2021/01/29 06:47:14;;;;;;;;;;;8.70;99.90;;;7.11;98.38;98922.97;5034591;28;19928;-40
2021/01/29 06:50:00;;;;;;;;;;;8.70;99.90;;;7.14;97.89;98927.06;5032966;28;19921;-40
2021/01/29 06:52:46;;;;;;;;;;;8.70;99.90;;;7.19;97.61;98927.22;5032613;28;20257;-40
2021/01/29 06:55:30;;;;;;;;;;;8.70;99.90;;;7.19;96.59;98940.78;5033994;28;19956;-40
2021/01/29 06:58:17;;;;;;;;;;;8.80;99.90;;;7.18;96.63;98941.84;5033259;28;19944;-40
2021/01/29 07:01:03;;;;;;;;;;;8.80;99.90;;;7.19;96.66;98940.78;5000175;28;20008;-40
2021/01/29 07:03:49;;;;;;;;;;;8.80;99.90;;;7.22;96.65;98950.31;5032599;28;19971;-40
2021/01/29 07:06:28;;;;;;;;;;;8.80;99.90;;;7.18;96.61;98963.53;5032966;28;19931;-40
2021/01/29 07:09:10;;;;;;;;;;;8.80;99.90;;;7.19;97.02;98965.19;5034143;28;20344;-40
2021/01/29 07:11:55;;;;;;;;;;;8.80;99.90;;;7.23;96.89;98962.81;5016125;28;19990;-40
2021/01/29 07:14:34;;;;;;;;;;;8.80;99.90;;;7.21;96.71;98965.78;5033825;28;19947;-40
2021/01/29 07:17:27;;;;;;;;;;;8.80;99.90;;;7.21;96.62;98971.19;5032526;28;19921;-40
2021/01/29 07:20:12;;;;;;;;;;;8.80;99.90;;;7.25;96.44;98976.94;5032637;28;20003;-40
2021/01/29 07:23:00;;;;;;;;;;;8.80;99.90;;;7.27;96.28;98975.66;5033606;28;19927;-40
2021/01/29 07:25:34;;;;;;;;;;;8.90;99.90;;;7.22;96.52;98983.69;5048978;28;19971;-40
2021/01/29 07:28:21;;;;;;;;;;;8.80;99.90;;;7.22;96.79;98989.13;5031799;28;20379;-40
2021/01/29 07:31:05;;;;;;;;;;;8.80;99.90;;;7.21;96.70;98976.63;5033391;28;20011;-40
2021/01/29 07:33:46;;;;;;;;;;;8.80;99.90;;;7.25;96.33;98983.22;5048579;28;20296;-40
2021/01/29 07:36:34;;;;;;;;;;;8.90;99.90;;;7.28;96.52;98990.88;5033508;28;20003;-40
2021/01/29 07:39:11;;;;;;;;;;;8.90;99.90;;;7.32;96.45;98993.97;5032047;28;19957;-40
2021/01/29 07:41:52;;;;;;;;;;;8.90;99.90;;;7.33;96.35;98996.41;5033742;28;19927;-40
2021/01/29 07:44:35;;;;;;;;;;;8.90;99.90;;;7.36;96.20;98992.41;5031761;28;19975;-40
2021/01/29 07:47:17;;;;;;;;;;;9.00;99.90;;;7.36;96.17;99005.16;5032123;28;19921;-40
2021/01/29 07:49:54;;;;;;;;;;;9.00;99.90;;;7.39;96.27;99010.94;5031923;28;20344;-40
2021/01/29 07:52:41;;;;;;;;;;;9.00;99.90;;;7.43;95.78;99016.72;5031891;28;19921;-40
2021/01/29 07:55:22;;;;;;;;;;;9.00;99.90;;;7.44;96.13;99000.19;5032780;28;20023;-40
2021/01/29 07:58:09;;;;;;;;;;;9.00;99.90;;;7.42;96.17;99013.19;5032939;28;19956;-40
2021/01/29 08:00:55;;;;;;;;;;;9.00;99.90;;;7.43;96.26;99008.59;5015245;28;19947;-40
2021/01/29 08:03:41;;;;;;;;;;;9.00;99.90;;;7.42;96.46;98999.59;5032832;28;20004;-40
2021/01/29 08:06:22;;;;;;;;;;;9.00;99.90;;;7.45;96.29;99015.41;5033093;28;19921;-40
2021/01/29 08:09:04;;;;;;;;;;;9.10;99.90;;;7.46;96.22;99021.69;5032976;28;20346;-40
2021/01/29 08:11:36;;;;;;;;;;;9.10;99.90;;;7.47;96.01;99012.47;5032472;28;20377;-40
2021/01/29 08:14:22;;;;;;;;;;;9.10;99.90;;;7.50;95.82;99020.13;5047709;28;20444;-40
2021/01/29 08:17:03;;;;;;;;;;;9.10;99.90;;;7.51;95.24;99018.22;5032724;28;19921;-40
2021/01/29 08:19:45;;;;;;;;;;;9.10;99.90;;;7.53;95.07;99019.66;5031388;28;19925;-40
2021/01/29 08:22:26;;;;;;;;;;;9.10;99.90;;;7.56;94.47;99021.06;5031293;28;19921;-40
2021/01/29 08:25:02;;;;;;;;;;;9.20;99.90;;;7.57;94.64;99028.16;5031421;28;19921;-40
2021/01/29 08:27:40;;;;;;;;;;;9.20;99.90;;;7.62;93.94;99026.38;5032460;28;20004;-40
2021/01/29 08:30:36;;;;;;;;;;;9.20;99.90;;;7.63;94.03;99035.34;5032356;28;19949;-40
2021/01/29 08:33:22;;;;;;;;;;;9.20;99.90;;;7.61;93.48;99030.16;5032618;28;20007;-40
2021/01/29 08:36:09;;;;;;;;;;;9.20;99.90;;;7.61;93.92;99040.19;5031428;28;19921;-40
2021/01/29 08:38:48;;;;;;;;;;;9.20;99.90;;;7.65;93.12;99043.25;5031453;28;19960;-40
2021/01/29 08:41:34;;;;;;;;;;;9.20;99.90;;;7.66;93.01;99036.75;5014417;28;20012;-40
2021/01/29 08:44:16;;;;;;;;;;;9.30;99.90;;;7.68;92.97;99045.47;5032599;28;19921;-40
2021/01/29 08:46:54;;;;;;;;;;;9.20;99.90;;;7.72;92.35;99044.78;5032578;28;19944;-40
2021/01/29 08:49:40;;;;;;;;;;;9.30;99.90;;;7.73;91.53;99034.75;5047647;28;19943;-40
2021/01/29 08:52:16;;;;;;;;;;;9.30;99.90;;;7.71;91.79;99054.00;5031857;28;20349;-40
2021/01/29 08:54:54;;;;;;;;;;;9.30;99.90;;;7.71;91.79;99067.56;5032096;28;19921;-40
2021/01/29 08:57:32;;;;;;;;;;;9.30;99.90;;;7.72;91.63;99058.34;5032021;28;20447;-40
2021/01/29 09:00:01;;;;;;;;;;;9.30;99.90;;;7.72;91.17;99052.13;5032077;28;19928;-40
2021/01/29 09:02:47;;;;;;;;;;;9.30;99.90;;;7.72;90.91;99060.25;5032241;28;19963;-40
2021/01/29 09:05:27;;;;;;;;;;;9.30;99.90;;;7.70;90.55;99067.81;5032011;28;19928;-40
2021/01/29 09:07:59;;;;;;;;;;;9.30;99.90;;;7.70;89.44;99067.81;5031955;28;20429;-40
2021/01/29 09:10:48;;;;;;;;;;;9.30;99.90;;;7.71;89.66;99072.19;5032270;28;20020;-40
2021/01/29 09:13:19;;;;;;;;;;;9.30;99.90;;;7.71;89.39;99072.19;5032040;28;19953;-40
2021/01/29 09:15:57;;;;;;;;;;;9.30;99.90;;;7.70;89.33;99084.91;5030738;28;19925;-40
2021/01/29 09:18:44;;;;;;;;;;;9.30;99.90;;;7.71;89.02;99088.47;5032183;28;20307;-40
2021/01/29 09:21:26;;;;;;;;;;;9.30;99.90;;;7.67;89.21;99103.53;5031728;28;19928;-40
2021/01/29 09:23:54;;;;;;;;;;;9.30;99.90;;;7.61;89.55;99098.00;5031807;28;20355;-40
2021/01/29 09:26:25;;;;;;;;;;;9.30;99.90;;;7.62;89.38;99110.50;5030661;28;19996;-40
2021/01/29 09:29:11;;;;;;;;;;;9.20;99.90;;;7.60;89.00;99107.22;5031869;28;20467;-40
2021/01/29 09:31:40;;;;;;;;;;;9.20;99.90;;;7.55;89.29;99114.41;5031846;28;19999;-40
2021/01/29 09:34:12;;;;;;;;;;;9.20;99.90;;;7.55;89.22;99107.09;5030559;28;20387;-40
2021/01/29 09:36:57;;;;;;;;;;;9.20;99.90;;;7.58;88.87;99117.47;5047064;28;20291;-40
2021/01/29 09:39:57;;;;;;;;;;;9.20;99.90;;;7.60;88.33;99126.22;5031873;28;19921;-40
2021/01/29 09:42:36;;;;;;;;;;;9.20;99.90;;;7.62;88.23;99137.66;5031756;28;19921;-40
2021/01/29 09:45:06;;;;;;;;;;;9.20;99.90;;;7.65;87.58;99138.25;5031495;28;19956;-40
2021/01/29 09:47:40;;;;;;;;;;;9.20;99.90;;;7.72;86.81;99137.06;5031644;28;19925;-40
2021/01/29 09:50:16;;;;;;;;;;;9.30;99.90;;;7.78;87.21;99143.47;5033042;28;20379;-40
2021/01/29 09:52:58;;;;;;;;;;;9.30;99.90;;;7.85;86.08;99149.59;5035138;28;19921;-40
2021/01/29 09:55:34;;;;;;;;;;;9.40;99.90;;;7.91;85.32;99159.50;5033824;28;19975;-40
2021/01/29 09:58:14;;;;;;;;;;;9.50;99.90;;;7.92;85.58;99155.72;5035578;28;19960;-40
2021/01/29 10:00:46;;;;;;;;;;;9.50;99.90;;;8.03;84.79;99156.78;5035233;28;20368;-40
2021/01/29 10:03:27;;;;;;;;;;;9.60;99.90;;;8.09;84.32;99157.75;5034017;28;19921;-40
2021/01/29 10:06:01;;;;;;;;;;;9.60;99.90;;;8.13;84.22;99163.53;5035091;28;19927;-41
2021/01/29 10:08:33;;;;;;;;;;;9.70;99.90;;;8.18;83.68;99174.53;5035262;28;20014;-40
2021/01/29 10:11:04;;;;;;;;;;;9.70;99.90;;;8.20;82.80;99175.09;5050252;28;20370;-40
2021/01/29 10:13:47;;;;;;;;;;;9.80;99.90;;;8.24;82.58;99189.06;5034850;28;19921;-40
2021/01/29 10:16:24;;;;;;;;;;;9.80;99.90;;;8.19;82.75;99193.28;5034991;28;19921;-40
2021/01/29 10:19:08;;;;;;;;;;;9.80;99.90;;;8.18;82.79;99197.06;5035095;28;19921;-40
2021/01/29 10:21:52;;;;;;;;;;;9.80;99.90;;;8.19;82.19;99204.16;5034859;28;19921;-40
2021/01/29 10:24:32;;;;;;;;;;;9.80;99.90;;;8.23;81.93;99188.22;5034507;28;19975;-40
2021/01/29 10:27:06;;;;;;;;;;;9.80;99.90;;;8.28;82.00;99201.09;5034979;28;19948;-40
2021/01/29 10:29:36;;;;;;;;;;;9.80;99.90;;;8.34;81.99;99200.97;5034828;28;19921;-40
2021/01/29 10:32:17;;;;;;;;;;;9.90;99.90;;;8.35;81.16;99201.78;5033480;28;19928;-40
2021/01/29 10:34:59;;;;;;;;;;;9.90;99.90;;;8.41;81.10;99206.28;5034414;28;20342;-40
2021/01/29 10:37:39;;;;;;;;;;;10.00;99.90;;;8.43;81.17;99208.75;5034553;28;20402;-40
2021/01/29 10:40:25;;;;;;;;;;;10.00;99.90;;;8.42;81.96;99209.84;5034727;28;19971;-40
2021/01/29 10:43:12;;;;;;;;;;;10.00;99.90;;;8.45;81.76;99212.88;5034558;28;19927;-40
2021/01/29 10:45:58;;;;;;;;;;;10.00;99.90;;;8.52;80.66;99215.50;5033237;28;19921;-40
2021/01/29 10:48:45;;;;;;;;;;;10.10;99.90;;;8.60;80.43;99225.19;5034553;28;19921;-40
2021/01/29 10:51:30;;;;;;;;;;;10.10;99.90;;;8.64;80.89;99220.94;5033814;28;19967;-40
2021/01/29 10:54:02;;;;;;;;;;;10.20;99.90;;;8.69;79.47;99223.75;5032767;28;20017;-40
2021/01/29 10:56:39;;;;;;;;;;;10.20;99.90;;;8.73;79.68;99221.41;5034364;28;20334;-40
2021/01/29 10:59:26;;;;;;;;;;;10.20;99.90;;;8.75;79.56;99222.81;5034259;28;20335;-40
2021/01/29 11:02:02;;;;;;;;;;;10.30;99.90;;;8.83;79.88;99223.50;5033467;28;19921;-40
2021/01/29 11:04:37;;;;;;;;;;;10.30;99.90;;;8.87;79.56;99224.69;5034022;28;19921;-40
2021/01/29 11:07:19;;;;;;;;;;;10.40;99.90;;;8.91;78.48;99231.28;5034214;28;20257;-40
2021/01/29 11:09:56;;;;;;;;;;;10.40;99.90;;;8.92;79.09;99241.94;5033942;28;19921;-40
2021/01/29 11:12:35;;;;;;;;;;;10.40;99.90;;;8.98;78.24;99236.59;5033978;28;19957;-40
2021/01/29 11:15:16;;;;;;;;;;;10.50;99.90;;;9.03;77.86;99244.84;5033773;28;19987;-40
2021/01/29 11:17:55;;;;;;;;;;;10.50;99.90;;;9.23;77.67;99246.34;5033915;28;19952;-40
2021/01/29 11:20:30;;;;;;;;;;;10.60;99.90;;;9.27;75.66;99234.69;5033548;28;20362;-40
2021/01/29 11:23:11;;;;;;;;;;;10.70;99.90;;;9.31;75.96;99244.06;5032450;28;19921;-41
2021/01/29 11:25:49;;;;;;;;;;;10.80;99.90;;;9.34;75.86;99249.00;5032136;28;19928;-40
2021/01/29 11:28:21;;;;;;;;;;;10.90;99.90;;;9.32;75.87;99245.72;5033633;28;20004;-40
2021/01/29 11:30:53;;;;;;;;;;;10.80;99.90;;;9.27;75.78;99242.88;5048614;28;19948;-40
2021/01/29 11:33:28;;;;;;;;;;;10.80;99.90;;;9.25;75.99;99252.34;5033519;28;19921;-41
2021/01/29 11:36:05;;;;;;;;;;;10.80;99.90;;;9.19;76.02;99251.41;5033624;28;19947;-40
2021/01/29 11:38:33;;;;;;;;;;;10.80;99.90;;;9.13;77.56;99249.69;5033429;28;19971;-40
2021/01/29 11:41:15;;;;;;;;;;;10.70;99.90;;;9.03;78.85;99242.97;5033766;28;19948;-41
2021/01/29 11:43:51;;;;;;;;;;;10.60;99.90;;;8.91;78.12;99248.44;5031848;28;19974;-40
2021/01/29 11:46:26;;;;;;;;;;;10.50;99.90;;;8.86;79.59;99244.78;5033493;28;19960;-41
2021/01/29 11:49:04;;;;;;;;;;;10.50;99.90;;;8.85;78.60;99249.38;5033314;28;19925;-40
2021/01/29 11:51:41;;;;;;;;;;;10.40;99.90;;;8.82;79.62;99246.34;5031723;28;19956;-40
2021/01/29 11:54:14;;;;;;;;;;;10.40;99.90;;;8.77;79.95;99242.44;5033117;28;19921;-40
2021/01/29 11:56:43;;;;;;;;;;;10.40;99.90;;;8.79;80.09;99239.47;5031886;28;19927;-40
2021/01/29 11:59:22;;;;;;;;;;;10.40;99.90;;;8.88;79.54;99242.66;5033067;28;19921;-40
2021/01/29 12:01:57;;;;;;;;;;;10.40;99.90;;;8.95;79.79;99239.81;5031543;28;19920;-40
2021/01/29 12:04:30;;;;;;;;;;;10.50;99.90;;;9.04;79.62;99230.19;5032954;28;19921;-41
2021/01/29 12:07:08;;;;;;;;;;;10.50;99.90;;;9.12;79.48;99232.50;5015589;28;20218;-41
2021/01/29 12:09:48;;;;;;;;;;;10.60;99.90;;;9.15;78.19;99223.06;5033034;28;19967;-41
2021/01/29 12:12:24;;;;;;;;;;;10.60;99.90;;;9.15;78.80;99220.34;5032523;28;19925;-40
2021/01/29 12:15:08;;;;;;;;;;;10.60;99.90;;;9.14;79.16;99224.94;5032716;28;19925;-40
2021/01/29 12:17:36;;;;;;;;;;;10.70;99.90;;;9.09;78.95;99219.41;5032974;28;19921;-40
2021/01/29 12:20:25;;;;;;;;;;;10.60;99.90;;;9.17;78.64;99207.31;5032508;28;19956;-41
2021/01/29 12:23:15;;;;;;;;;;;10.70;99.90;;;9.20;77.67;99207.66;5032562;28;19921;-41
2021/01/29 12:26:02;;;;;;;;;;;10.70;99.90;;;9.29;77.99;99213.53;5032688;28;19944;-41
2021/01/29 12:28:39;;;;;;;;;;;10.70;99.90;;;9.40;75.94;99206.38;5032495;28;20384;-41